createdAt,value
2019-02-18T00:02:25.227Z,3.40
2019-02-18T00:06:30.650Z,3.30
2019-02-18T00:10:36.437Z,3.30
2019-02-18T00:14:42.256Z,3.30
2019-02-18T00:18:47.713Z,3.20
2019-02-18T00:22:53.532Z,3.20
2019-02-18T00:26:58.907Z,3.30
2019-02-18T00:31:04.269Z,3.30
2019-02-18T00:35:09.695Z,3.20
2019-02-18T00:39:15.227Z,3.20
2019-02-18T00:43:20.611Z,3.30
2019-02-18T00:47:26.070Z,3.20
2019-02-18T00:51:31.333Z,3.50
2019-02-18T00:55:36.764Z,3.70
2019-02-18T00:59:42.189Z,3.60
2019-02-18T01:03:47.643Z,3.70
2019-02-18T01:07:53.047Z,4.00
2019-02-18T01:11:58.929Z,4.20
2019-02-18T01:16:04.366Z,4.30
2019-02-18T01:20:11.155Z,4.40
2019-02-18T01:24:16.524Z,4.30
2019-02-18T01:28:21.988Z,4.30
2019-02-18T01:32:27.333Z,4.40
2019-02-18T01:36:32.717Z,4.30
2019-02-18T01:40:38.091Z,4.60
2019-02-18T01:44:43.480Z,4.80
2019-02-18T01:48:48.868Z,4.90
2019-02-18T01:52:54.203Z,4.70
2019-02-18T01:57:00.273Z,4.50
2019-02-18T02:01:07.613Z,4.30
2019-02-18T02:05:14.953Z,4.50
2019-02-18T02:09:20.381Z,4.20
2019-02-18T02:13:37.211Z,4.20
2019-02-18T02:17:42.626Z,4.50
2019-02-18T02:21:48.006Z,4.30
2019-02-18T02:25:53.339Z,4.10
2019-02-18T02:29:59.162Z,4.00
2019-02-18T02:34:04.591Z,4.10
2019-02-18T02:38:10.020Z,4.00
2019-02-18T02:42:15.729Z,4.30
2019-02-18T02:46:21.058Z,4.20
2019-02-18T02:50:26.501Z,4.10
2019-02-18T02:54:32.019Z,4.10
2019-02-18T02:58:37.461Z,3.90
2019-02-18T03:02:42.944Z,3.80
2019-02-18T03:06:48.373Z,3.60
2019-02-18T03:10:53.977Z,3.70
2019-02-18T03:14:59.332Z,3.50
2019-02-18T03:19:04.673Z,3.50
2019-02-18T03:23:10.048Z,3.50
2019-02-18T03:27:15.403Z,3.50
2019-02-18T03:31:25.745Z,3.40
2019-02-18T03:35:31.180Z,3.60
2019-02-18T03:39:36.387Z,3.40
2019-02-18T03:43:42.002Z,3.40
2019-02-18T03:47:47.445Z,3.60
2019-02-18T03:51:53.077Z,3.60
2019-02-18T03:55:58.618Z,3.50
2019-02-18T04:00:04.855Z,3.50
2019-02-18T04:04:10.340Z,3.50
2019-02-18T04:08:16.245Z,3.40
2019-02-18T04:12:21.595Z,3.40
2019-02-18T04:16:27.324Z,3.30
2019-02-18T04:20:32.984Z,3.20
2019-02-18T04:24:38.779Z,3.10
2019-02-18T04:28:44.123Z,3.00
2019-02-18T04:32:49.513Z,2.90
2019-02-18T04:36:54.798Z,2.80
2019-02-18T04:41:00.849Z,2.70
2019-02-18T04:45:07.052Z,2.60
2019-02-18T04:49:12.643Z,2.50
2019-02-18T04:53:17.991Z,2.60
2019-02-18T04:57:23.381Z,2.50
2019-02-18T05:01:28.807Z,2.50
2019-02-18T05:05:34.088Z,2.40
2019-02-18T05:09:40.210Z,2.30
2019-02-18T05:14:04.930Z,2.40
2019-02-18T05:18:10.281Z,2.40
2019-02-18T05:22:15.710Z,2.40
2019-02-18T05:26:21.151Z,2.40
2019-02-18T05:30:26.459Z,2.50
2019-02-18T05:34:31.645Z,2.50
2019-02-18T05:38:36.896Z,2.50
2019-02-18T05:42:42.337Z,2.50
2019-02-18T05:46:47.600Z,2.70
2019-02-18T05:50:52.939Z,2.80
2019-02-18T05:54:58.217Z,2.90
2019-02-18T05:59:03.622Z,2.90
2019-02-18T06:03:09.053Z,2.80
2019-02-18T06:07:14.831Z,2.80
2019-02-18T06:11:20.345Z,2.80
2019-02-18T06:15:25.588Z,2.80
2019-02-18T06:19:31.389Z,2.80
2019-02-18T06:23:36.953Z,2.80
2019-02-18T06:27:42.308Z,2.70
2019-02-18T06:31:47.474Z,2.80
2019-02-18T06:35:53.368Z,2.80
2019-02-18T06:39:58.735Z,2.90
2019-02-18T06:44:04.090Z,2.80
2019-02-18T06:48:23.497Z,2.60
2019-02-18T06:52:29.150Z,2.60
2019-02-18T06:57:02.762Z,3.00
2019-02-18T07:01:19.008Z,2.90
2019-02-18T07:05:33.607Z,2.70
2019-02-18T07:09:51.708Z,2.70
2019-02-18T07:13:57.198Z,2.70
2019-02-18T07:18:02.622Z,2.70
2019-02-18T07:22:08.434Z,2.90
2019-02-18T07:26:13.831Z,3.10
2019-02-18T07:30:19.765Z,3.30
2019-02-18T07:34:25.534Z,3.30
2019-02-18T07:38:31.071Z,3.40
2019-02-18T07:42:36.337Z,3.60
2019-02-18T07:46:42.312Z,3.80
2019-02-18T07:50:47.727Z,4.00
2019-02-18T07:54:53.399Z,4.30
2019-02-18T07:58:58.752Z,4.40
2019-02-18T08:03:04.033Z,4.70
2019-02-18T08:07:09.638Z,4.90
2019-02-18T08:11:14.940Z,5.20
2019-02-18T08:15:20.381Z,5.60
2019-02-18T08:19:25.744Z,5.80
2019-02-18T08:23:31.098Z,5.80
2019-02-18T08:27:36.768Z,6.20
2019-02-18T08:31:42.204Z,6.20
2019-02-18T08:35:47.562Z,6.70
2019-02-18T08:39:52.922Z,6.70
2019-02-18T08:43:58.315Z,6.60
2019-02-18T08:48:04.181Z,6.90
2019-02-18T08:52:09.814Z,7.30
2019-02-18T08:56:15.269Z,7.50
2019-02-18T09:00:21.168Z,7.40
2019-02-18T09:04:28.155Z,7.60
2019-02-18T09:08:34.066Z,7.70
2019-02-18T09:12:39.974Z,7.90
2019-02-18T09:16:45.327Z,8.30
2019-02-18T09:20:50.652Z,8.50
2019-02-18T09:25:07.564Z,8.50
2019-02-18T09:29:12.983Z,8.80
2019-02-18T09:33:18.346Z,9.20
2019-02-18T09:37:24.074Z,9.40
2019-02-18T09:41:29.571Z,9.50
2019-02-18T09:45:35.076Z,9.50
2019-02-18T09:49:40.732Z,9.70
2019-02-18T09:53:46.004Z,9.90
2019-02-18T09:57:51.727Z,9.70
2019-02-18T10:01:57.105Z,9.90
2019-02-18T10:06:02.612Z,10.20
2019-02-18T10:10:08.380Z,10.50
2019-02-18T10:14:13.792Z,10.60
2019-02-18T10:18:19.223Z,11.00
2019-02-18T10:22:24.573Z,11.20
2019-02-18T10:26:30.021Z,11.40
2019-02-18T10:30:35.297Z,11.40
2019-02-18T10:34:40.831Z,11.50
2019-02-18T10:38:46.187Z,11.50
2019-02-18T10:42:51.633Z,11.70
2019-02-18T10:46:57.096Z,12.20
2019-02-18T10:51:02.850Z,12.20
2019-02-18T10:55:08.968Z,12.10
2019-02-18T10:59:14.793Z,12.70
2019-02-18T11:03:20.672Z,13.00
2019-02-18T11:07:26.137Z,13.10
2019-02-18T11:11:31.551Z,13.10
2019-02-18T11:15:36.919Z,13.30
2019-02-18T11:19:42.347Z,12.80
2019-02-18T11:23:47.737Z,13.40
2019-02-18T11:27:53.107Z,13.60
2019-02-18T11:32:00.429Z,13.80
2019-02-18T11:36:05.881Z,13.50
2019-02-18T11:40:13.945Z,14.00
2019-02-18T11:44:19.655Z,14.30
2019-02-18T11:48:25.003Z,14.50
2019-02-18T11:52:30.725Z,14.60
2019-02-18T11:56:36.518Z,14.20
2019-02-18T12:00:42.042Z,14.60
2019-02-18T12:04:47.410Z,15.00
2019-02-18T12:08:52.836Z,14.90
2019-02-18T12:12:58.651Z,14.90
2019-02-18T12:17:04.081Z,15.00
2019-02-18T12:21:09.545Z,15.20
2019-02-18T12:25:15.113Z,15.60
2019-02-18T12:29:26.133Z,15.80
2019-02-18T12:33:28.616Z,15.90
2019-02-18T12:37:34.376Z,16.50
2019-02-18T12:41:48.324Z,17.60
2019-02-18T12:45:47.032Z,18.50
2019-02-18T12:49:52.913Z,19.10
2019-02-18T12:54:04.936Z,18.80
2019-02-18T12:58:06.105Z,19.10
2019-02-18T13:02:11.546Z,18.30
2019-02-18T13:06:17.004Z,20.00
2019-02-18T13:10:22.507Z,20.40
2019-02-18T13:14:27.942Z,19.10
2019-02-18T13:18:33.370Z,20.70
2019-02-18T13:22:38.823Z,19.80
2019-02-18T13:26:44.274Z,19.30
2019-02-18T13:30:49.640Z,19.40
2019-02-18T13:34:55.057Z,18.20
2019-02-18T13:39:00.496Z,17.60
2019-02-18T13:43:06.229Z,17.20
2019-02-18T13:47:11.631Z,17.00
2019-02-18T13:51:24.061Z,17.00
2019-02-18T13:55:24.553Z,17.00
2019-02-18T13:59:29.998Z,16.70
2019-02-18T14:03:35.663Z,16.40
2019-02-18T14:07:41.029Z,16.40
2019-02-18T14:11:46.806Z,16.30
2019-02-18T14:15:52.244Z,16.40
2019-02-18T14:19:58.185Z,16.40
2019-02-18T14:24:03.555Z,17.00
2019-02-18T14:28:08.907Z,17.00
2019-02-18T14:32:14.576Z,16.40
2019-02-18T14:36:20.012Z,15.90
2019-02-18T14:40:25.841Z,15.90
2019-02-18T14:44:31.274Z,15.90
2019-02-18T14:48:36.888Z,15.80
2019-02-18T14:52:42.615Z,16.70
2019-02-18T14:56:48.047Z,16.60
2019-02-18T15:00:53.667Z,16.70
2019-02-18T15:04:59.074Z,17.40
2019-02-18T15:09:05.636Z,17.30
2019-02-18T15:13:11.063Z,17.50
2019-02-18T15:17:16.522Z,17.70
2019-02-18T15:21:21.717Z,18.10
2019-02-18T15:25:27.267Z,18.20
2019-02-18T15:29:32.695Z,18.40
2019-02-18T15:33:38.165Z,18.80
2019-02-18T15:37:43.953Z,19.10
2019-02-18T15:41:49.440Z,19.10
2019-02-18T15:45:55.611Z,19.20
2019-02-18T15:50:01.280Z,18.50
2019-02-18T15:54:08.115Z,18.10
2019-02-18T15:58:13.546Z,17.60
2019-02-18T16:02:19.074Z,17.50
2019-02-18T16:06:24.875Z,16.70
2019-02-18T16:10:30.701Z,16.30
2019-02-18T16:14:36.229Z,15.50
2019-02-18T16:18:42.022Z,15.20
2019-02-18T16:22:47.659Z,14.60
2019-02-18T16:26:53.521Z,14.10
2019-02-18T16:30:59.132Z,13.70
2019-02-18T16:35:04.844Z,13.50
2019-02-18T16:39:10.990Z,13.80
2019-02-18T16:43:16.445Z,13.90
2019-02-18T16:47:21.898Z,13.60
2019-02-18T16:51:27.490Z,13.40
2019-02-18T16:55:32.874Z,13.20
2019-02-18T16:59:38.122Z,13.10
2019-02-18T17:03:43.559Z,12.80
2019-02-18T17:07:48.999Z,12.60
2019-02-18T17:11:54.440Z,12.10
2019-02-18T17:15:59.719Z,11.80
2019-02-18T17:20:05.891Z,11.60
2019-02-18T17:24:11.589Z,11.50
2019-02-18T17:28:17.091Z,11.10
2019-02-18T17:32:22.559Z,11.20
2019-02-18T17:36:27.932Z,10.80
2019-02-18T17:40:34.104Z,10.60
2019-02-18T17:44:41.718Z,10.40
2019-02-18T17:48:47.342Z,10.10
2019-02-18T17:52:53.166Z,9.90
2019-02-18T17:56:59.194Z,9.60
2019-02-18T18:01:04.616Z,9.50
2019-02-18T18:05:10.537Z,9.40
2019-02-18T18:09:16.222Z,9.30
2019-02-18T18:13:25.094Z,9.20
2019-02-18T18:17:29.181Z,9.00
2019-02-18T18:21:35.197Z,9.00
2019-02-18T18:25:40.904Z,9.00
2019-02-18T18:29:46.523Z,8.90
2019-02-18T18:33:52.268Z,8.90
2019-02-18T18:37:57.823Z,8.80
2019-02-18T18:42:03.381Z,8.70
2019-02-18T18:46:08.927Z,9.10
2019-02-18T18:50:16.964Z,9.20
2019-02-18T18:54:22.720Z,9.60
2019-02-18T18:58:28.147Z,9.30
2019-02-18T19:02:33.544Z,9.40
2019-02-18T19:06:38.905Z,9.10
2019-02-18T19:10:44.311Z,9.00
2019-02-18T19:14:49.761Z,8.80
2019-02-18T19:18:55.197Z,8.80
2019-02-18T19:23:01.657Z,8.70
2019-02-18T19:27:07.070Z,8.50
2019-02-18T19:31:12.604Z,8.30
2019-02-18T19:35:18.375Z,8.00
2019-02-18T19:39:23.806Z,7.80
2019-02-18T19:43:29.187Z,7.80
2019-02-18T19:47:35.032Z,7.70
2019-02-18T19:51:40.503Z,7.50
2019-02-18T19:55:46.061Z,7.50
2019-02-18T19:59:51.530Z,7.30
2019-02-18T20:03:57.361Z,7.30
2019-02-18T20:08:02.812Z,7.30
2019-02-18T20:12:08.221Z,7.30
2019-02-18T20:16:13.643Z,7.30
2019-02-18T20:20:19.021Z,7.20
2019-02-18T20:24:24.447Z,7.10
2019-02-18T20:28:29.877Z,7.00
2019-02-18T20:32:35.356Z,7.00
2019-02-18T20:36:41.891Z,7.00
2019-02-18T20:40:47.883Z,7.00
2019-02-18T20:44:53.226Z,7.00
2019-02-18T20:48:58.684Z,6.90
2019-02-18T20:53:04.122Z,6.70
2019-02-18T20:57:09.508Z,6.60
2019-02-18T21:01:14.867Z,6.50
2019-02-18T21:05:20.665Z,6.30
2019-02-18T21:09:26.132Z,6.20
2019-02-18T21:13:31.610Z,6.10
2019-02-18T21:17:37.389Z,6.00
2019-02-18T21:21:43.159Z,6.00
2019-02-18T21:25:48.512Z,6.00
2019-02-18T21:29:54.017Z,6.10
2019-02-18T21:33:59.485Z,6.20
2019-02-18T21:38:04.965Z,6.10
2019-02-18T21:42:12.432Z,5.80
2019-02-18T21:46:17.881Z,5.70
2019-02-18T21:50:23.341Z,5.70
2019-02-18T21:54:28.805Z,5.70
2019-02-18T21:58:34.501Z,5.60
2019-02-18T22:02:40.171Z,5.50
2019-02-18T22:06:45.619Z,5.50
2019-02-18T22:10:51.050Z,5.30
2019-02-18T22:14:56.867Z,5.20
2019-02-18T22:19:02.196Z,5.20
2019-02-18T22:23:07.655Z,5.00
2019-02-18T22:27:13.381Z,5.00
2019-02-18T22:31:18.834Z,5.00
2019-02-18T22:35:24.208Z,4.90
2019-02-18T22:39:29.555Z,4.80
2019-02-18T22:43:34.982Z,4.80
2019-02-18T22:47:40.677Z,4.90
2019-02-18T22:51:46.131Z,4.90
2019-02-18T22:55:51.497Z,4.90
2019-02-18T22:59:57.201Z,4.90
2019-02-18T23:04:02.706Z,5.00
2019-02-18T23:08:08.143Z,4.90
2019-02-18T23:12:13.478Z,4.80
2019-02-18T23:16:19.249Z,4.80
2019-02-18T23:20:24.670Z,4.70
2019-02-18T23:24:30.461Z,4.60
2019-02-18T23:28:35.817Z,4.60
2019-02-18T23:32:41.440Z,4.50
2019-02-18T23:36:47.241Z,4.50
2019-02-18T23:40:52.597Z,4.50
2019-02-18T23:44:59.481Z,4.50
2019-02-18T23:49:05.101Z,4.60
2019-02-18T23:53:10.887Z,4.80
2019-02-18T23:57:16.067Z,4.70
